Portada
METAR-TAF:

METAR-TAF

Aeroports :

Valença, França

latitud: 44-54-58N, longitud: 4-58-06E, altitud: 160 m

Observació

L'informe es va fer fa 38 minuts, a les 08:30 UTC
Vent 11 kt del Sud/Sud-Oest
Temperatura 22°C
Humitat 46%
Pressió 1018 hPa
Visibilitat 10 km o més
Escasses núvols a una alçada de 7200 ft

METAR: LFLU 210830Z AUTO 21011KT 9999 FEW072 22/10 Q1018

Hora: 11:08 (09:08 UTC)


TAF: manca

Observacions i pronòstics meteorològics de més de 4000 aeroports (METAR i TAF).

Les estacions disponibles són els punts grocs i vermells al mapa.

Posi el ratolí al punt desitjat per veure el nom de l'estació.

Feu clic per veure les observacions i els pronòstics meteorològics.

Per canviar el mapa: feu clic els botons verds amb una creu de color negre per apropar; al botó verd amb un guió per allunyar la imatge; o en les fletxes verdes per a mapes adjacents.


METAR-TAF: